Tompa, Russia
Current Conditions -  °F | °C
As of 7:30 PM on Thursday 27 Nov 2014 (Local Time) from UIUU Reporting Station
Smoke Smoke  
Wind Chill:   Ceiling: 10000
Heat Index:   Visibility: 3mi
Dew Point: -11°   Wind: 0mph
Humidity: 60%   Direction: NA
Pressure: 29.8"   Gusts: NA
Location:  55.13°N, 109.78°E
Report Text: UIUU 271130Z 00000MPS 5000 FU OVC100 M18/M24 Q1009 NOSIG RMKQFE713/0950 26410560
Loading
Personal Weather Stations






























Interactive Weather Map New forecast layout! Learn more

10-Day Weather Forecast

Advertisements
Track Severe Weather on mobile